sensor_id;sensor_type;location;lat;lon;timestamp;temperature;humidity
47813;DHT22;34221;45.296;9.516;2022-08-03T00:00:06;26.50;84.20
47813;DHT22;34221;45.296;9.516;2022-08-03T00:00:27;26.50;84.40
47813;DHT22;34221;45.296;9.516;2022-08-03T00:00:42;26.50;84.50
47813;DHT22;34221;45.296;9.516;2022-08-03T00:00:57;26.50;84.10
47813;DHT22;34221;45.296;9.516;2022-08-03T00:01:15;26.50;84.30
47813;DHT22;34221;45.296;9.516;2022-08-03T00:01:31;26.50;84.10
47813;DHT22;34221;45.296;9.516;2022-08-03T00:01:46;26.40;84.00
47813;DHT22;34221;45.296;9.516;2022-08-03T00:02:01;26.50;84.10
47813;DHT22;34221;45.296;9.516;2022-08-03T00:02:17;26.50;84.30
47813;DHT22;34221;45.296;9.516;2022-08-03T00:02:33;26.50;84.50
47813;DHT22;34221;45.296;9.516;2022-08-03T00:02:48;26.50;84.00
47813;DHT22;34221;45.296;9.516;2022-08-03T00:03:03;26.50;84.10
47813;DHT22;34221;45.296;9.516;2022-08-03T00:03:18;26.50;84.40
47813;DHT22;34221;45.296;9.516;2022-08-03T00:03:33;26.40;84.10
47813;DHT22;34221;45.296;9.516;2022-08-03T00:03:48;26.40;84.20
47813;DHT22;34221;45.296;9.516;2022-08-03T00:04:07;26.40;84.20
47813;DHT22;34221;45.296;9.516;2022-08-03T00:04:23;26.40;84.50
47813;DHT22;34221;45.296;9.516;2022-08-03T00:04:38;26.50;84.40
47813;DHT22;34221;45.296;9.516;2022-08-03T00:04:53;26.40;84.80
47813;DHT22;34221;45.296;9.516;2022-08-03T00:05:08;26.50;84.50
47813;DHT22;34221;45.296;9.516;2022-08-03T00:05:23;26.50;84.50
47813;DHT22;34221;45.296;9.516;2022-08-03T00:05:38;26.40;84.50
47813;DHT22;34221;45.296;9.516;2022-08-03T00:05:53;26.40;84.50
47813;DHT22;34221;45.296;9.516;2022-08-03T00:06:08;26.40;84.50
47813;DHT22;34221;45.296;9.516;2022-08-03T00:06:23;26.30;84.50
47813;DHT22;34221;45.296;9.516;2022-08-03T00:06:39;26.40;84.70
47813;DHT22;34221;45.296;9.516;2022-08-03T00:06:53;26.40;84.70
47813;DHT22;34221;45.296;9.516;2022-08-03T00:07:08;26.30;84.80
47813;DHT22;34221;45.296;9.516;2022-08-03T00:07:23;26.30;85.00
47813;DHT22;34221;45.296;9.516;2022-08-03T00:07:38;26.30;84.90
47813;DHT22;34221;45.296;9.516;2022-08-03T00:07:54;26.30;85.00
47813;DHT22;34221;45.296;9.516;2022-08-03T00:08:09;26.30;85.10
47813;DHT22;34221;45.296;9.516;2022-08-03T00:08:25;26.30;85.20
47813;DHT22;34221;45.296;9.516;2022-08-03T00:08:39;26.40;85.20
47813;DHT22;34221;45.296;9.516;2022-08-03T00:08:54;26.40;85.30
47813;DHT22;34221;45.296;9.516;2022-08-03T00:09:10;26.40;85.30
47813;DHT22;34221;45.296;9.516;2022-08-03T00:09:25;26.40;85.30
47813;DHT22;34221;45.296;9.516;2022-08-03T00:09:40;26.40;85.50
47813;DHT22;34221;45.296;9.516;2022-08-03T00:09:55;26.40;85.30
47813;DHT22;34221;45.296;9.516;2022-08-03T00:10:10;26.30;85.20
47813;DHT22;34221;45.296;9.516;2022-08-03T00:10:26;26.30;85.10
47813;DHT22;34221;45.296;9.516;2022-08-03T00:10:41;26.30;85.20
47813;DHT22;34221;45.296;9.516;2022-08-03T00:10:56;26.30;85.30
47813;DHT22;34221;45.296;9.516;2022-08-03T00:11:11;26.30;85.50
47813;DHT22;34221;45.296;9.516;2022-08-03T00:11:26;26.30;85.50
47813;DHT22;34221;45.296;9.516;2022-08-03T00:11:41;26.30;85.50
47813;DHT22;34221;45.296;9.516;2022-08-03T00:11:56;26.30;85.70
47813;DHT22;34221;45.296;9.516;2022-08-03T00:12:11;26.30;85.80
47813;DHT22;34221;45.296;9.516;2022-08-03T00:12:26;26.30;85.70
47813;DHT22;34221;45.296;9.516;2022-08-03T00:12:41;26.30;85.60
47813;DHT22;34221;45.296;9.516;2022-08-03T00:12:56;26.30;85.60
47813;DHT22;34221;45.296;9.516;2022-08-03T00:13:11;26.30;85.90
47813;DHT22;34221;45.296;9.516;2022-08-03T00:13:27;26.30;86.20
47813;DHT22;34221;45.296;9.516;2022-08-03T00:13:42;26.30;85.90
47813;DHT22;34221;45.296;9.516;2022-08-03T00:13:57;26.30;86.20
47813;DHT22;34221;45.296;9.516;2022-08-03T00:14:12;26.30;86.00
47813;DHT22;34221;45.296;9.516;2022-08-03T00:14:27;26.30;85.90
47813;DHT22;34221;45.296;9.516;2022-08-03T00:14:42;26.30;85.80
47813;DHT22;34221;45.296;9.516;2022-08-03T00:14:57;26.30;85.70
47813;DHT22;34221;45.296;9.516;2022-08-03T00:15:11;26.20;85.70
47813;DHT22;34221;45.296;9.516;2022-08-03T00:15:26;26.20;86.00
47813;DHT22;34221;45.296;9.516;2022-08-03T00:15:42;26.20;86.20
47813;DHT22;34221;45.296;9.516;2022-08-03T00:15:57;26.20;86.30
47813;DHT22;34221;45.296;9.516;2022-08-03T00:16:12;26.20;86.50
47813;DHT22;34221;45.296;9.516;2022-08-03T00:16:27;26.20;86.60
47813;DHT22;34221;45.296;9.516;2022-08-03T00:16:42;26.30;86.60
47813;DHT22;34221;45.296;9.516;2022-08-03T00:16:57;26.30;86.40
47813;DHT22;34221;45.296;9.516;2022-08-03T00:17:12;26.30;86.30
47813;DHT22;34221;45.296;9.516;2022-08-03T00:17:27;26.30;86.50
47813;DHT22;34221;45.296;9.516;2022-08-03T00:17:42;26.20;86.70
47813;DHT22;34221;45.296;9.516;2022-08-03T00:17:58;26.20;86.50
47813;DHT22;34221;45.296;9.516;2022-08-03T00:18:13;26.20;86.40
47813;DHT22;34221;45.296;9.516;2022-08-03T00:18:28;26.20;86.40
47813;DHT22;34221;45.296;9.516;2022-08-03T00:18:43;26.20;86.40
47813;DHT22;34221;45.296;9.516;2022-08-03T00:18:58;26.20;86.50
47813;DHT22;34221;45.296;9.516;2022-08-03T00:19:13;26.20;87.00
47813;DHT22;34221;45.296;9.516;2022-08-03T00:19:28;26.20;86.70
47813;DHT22;34221;45.296;9.516;2022-08-03T00:19:43;26.20;86.60
47813;DHT22;34221;45.296;9.516;2022-08-03T00:19:58;26.20;86.80
47813;DHT22;34221;45.296;9.516;2022-08-03T00:20:13;26.30;87.10
47813;DHT22;34221;45.296;9.516;2022-08-03T00:20:28;26.20;86.60
47813;DHT22;34221;45.296;9.516;2022-08-03T00:20:43;26.20;86.50
47813;DHT22;34221;45.296;9.516;2022-08-03T00:20:58;26.20;86.50
47813;DHT22;34221;45.296;9.516;2022-08-03T00:21:13;26.20;86.60
47813;DHT22;34221;45.296;9.516;2022-08-03T00:21:28;26.20;86.70
47813;DHT22;34221;45.296;9.516;2022-08-03T00:21:43;26.20;86.70
47813;DHT22;34221;45.296;9.516;2022-08-03T00:21:58;26.20;87.00
47813;DHT22;34221;45.296;9.516;2022-08-03T00:22:13;26.20;87.20
47813;DHT22;34221;45.296;9.516;2022-08-03T00:22:29;26.20;87.20
47813;DHT22;34221;45.296;9.516;2022-08-03T00:22:44;26.20;86.80
47813;DHT22;34221;45.296;9.516;2022-08-03T00:22:59;26.20;86.70
47813;DHT22;34221;45.296;9.516;2022-08-03T00:23:13;26.20;87.10
47813;DHT22;34221;45.296;9.516;2022-08-03T00:23:29;26.10;86.90
47813;DHT22;34221;45.296;9.516;2022-08-03T00:23:44;26.10;86.90
47813;DHT22;34221;45.296;9.516;2022-08-03T00:23:59;26.10;86.90
47813;DHT22;34221;45.296;9.516;2022-08-03T00:24:14;26.10;87.20
47813;DHT22;34221;45.296;9.516;2022-08-03T00:24:29;26.20;87.80
47813;DHT22;34221;45.296;9.516;2022-08-03T00:24:44;26.10;87.50
47813;DHT22;34221;45.296;9.516;2022-08-03T00:25:00;26.20;87.40
47813;DHT22;34221;45.296;9.516;2022-08-03T00:25:15;26.20;87.60
47813;DHT22;34221;45.296;9.516;2022-08-03T00:25:30;26.10;87.30
47813;DHT22;34221;45.296;9.516;2022-08-03T00:25:45;26.10;87.20
47813;DHT22;34221;45.296;9.516;2022-08-03T00:26:00;26.20;87.30
47813;DHT22;34221;45.296;9.516;2022-08-03T00:26:15;26.20;87.30
47813;DHT22;34221;45.296;9.516;2022-08-03T00:26:30;26.10;87.30
47813;DHT22;34221;45.296;9.516;2022-08-03T00:26:45;26.10;87.40
47813;DHT22;34221;45.296;9.516;2022-08-03T00:27:01;26.10;87.30
47813;DHT22;34221;45.296;9.516;2022-08-03T00:27:16;26.10;87.40
47813;DHT22;34221;45.296;9.516;2022-08-03T00:27:31;26.10;87.30
47813;DHT22;34221;45.296;9.516;2022-08-03T00:27:46;26.10;87.30
47813;DHT22;34221;45.296;9.516;2022-08-03T00:28:02;26.10;87.40
47813;DHT22;34221;45.296;9.516;2022-08-03T00:28:18;26.10;87.40
47813;DHT22;34221;45.296;9.516;2022-08-03T00:28:33;26.10;87.70
47813;DHT22;34221;45.296;9.516;2022-08-03T00:28:49;26.10;87.70
47813;DHT22;34221;45.296;9.516;2022-08-03T00:29:04;26.10;87.70
47813;DHT22;34221;45.296;9.516;2022-08-03T00:29:19;26.10;87.90
47813;DHT22;34221;45.296;9.516;2022-08-03T00:29:33;26.10;87.80
47813;DHT22;34221;45.296;9.516;2022-08-03T00:29:48;26.10;87.80
47813;DHT22;34221;45.296;9.516;2022-08-03T00:30:04;26.10;87.90
47813;DHT22;34221;45.296;9.516;2022-08-03T00:30:19;26.10;88.20
47813;DHT22;34221;45.296;9.516;2022-08-03T00:30:35;26.10;88.10
47813;DHT22;34221;45.296;9.516;2022-08-03T00:30:50;26.10;88.10
47813;DHT22;34221;45.296;9.516;2022-08-03T00:31:06;26.10;88.10
47813;DHT22;34221;45.296;9.516;2022-08-03T00:31:21;26.10;88.10
47813;DHT22;34221;45.296;9.516;2022-08-03T00:31:36;26.10;87.80
47813;DHT22;34221;45.296;9.516;2022-08-03T00:31:51;26.10;87.90
47813;DHT22;34221;45.296;9.516;2022-08-03T00:32:06;26.10;88.40
47813;DHT22;34221;45.296;9.516;2022-08-03T00:32:22;26.10;88.40
47813;DHT22;34221;45.296;9.516;2022-08-03T00:32:37;26.10;88.40
47813;DHT22;34221;45.296;9.516;2022-08-03T00:32:52;26.10;88.40
47813;DHT22;34221;45.296;9.516;2022-08-03T00:33:07;26.10;87.80
47813;DHT22;34221;45.296;9.516;2022-08-03T00:33:23;26.10;88.60
47813;DHT22;34221;45.296;9.516;2022-08-03T00:33:38;26.10;87.80
47813;DHT22;34221;45.296;9.516;2022-08-03T00:33:53;26.10;88.20
47813;DHT22;34221;45.296;9.516;2022-08-03T00:34:08;26.10;88.10
47813;DHT22;34221;45.296;9.516;2022-08-03T00:34:23;26.10;87.90
47813;DHT22;34221;45.296;9.516;2022-08-03T00:34:38;26.10;88.20
47813;DHT22;34221;45.296;9.516;2022-08-03T00:34:53;26.10;88.10
47813;DHT22;34221;45.296;9.516;2022-08-03T00:35:08;26.10;87.90
47813;DHT22;34221;45.296;9.516;2022-08-03T00:35:24;26.10;88.20
47813;DHT22;34221;45.296;9.516;2022-08-03T00:35:39;26.10;88.80
47813;DHT22;34221;45.296;9.516;2022-08-03T00:35:54;26.10;88.20
47813;DHT22;34221;45.296;9.516;2022-08-03T00:36:09;26.10;87.90
47813;DHT22;34221;45.296;9.516;2022-08-03T00:36:23;26.10;88.00
47813;DHT22;34221;45.296;9.516;2022-08-03T00:36:38;26.10;88.20
47813;DHT22;34221;45.296;9.516;2022-08-03T00:36:53;26.10;88.10
47813;DHT22;34221;45.296;9.516;2022-08-03T00:37:08;26.00;88.10
47813;DHT22;34221;45.296;9.516;2022-08-03T00:37:23;26.00;88.10
47813;DHT22;34221;45.296;9.516;2022-08-03T00:37:38;26.00;88.10
47813;DHT22;34221;45.296;9.516;2022-08-03T00:37:53;26.00;88.30
47813;DHT22;34221;45.296;9.516;2022-08-03T00:38:08;26.00;88.40
47813;DHT22;34221;45.296;9.516;2022-08-03T00:38:23;26.00;88.30
47813;DHT22;34221;45.296;9.516;2022-08-03T00:38:38;26.00;88.50
47813;DHT22;34221;45.296;9.516;2022-08-03T00:38:54;26.00;88.60
47813;DHT22;34221;45.296;9.516;2022-08-03T00:39:09;26.00;88.80
47813;DHT22;34221;45.296;9.516;2022-08-03T00:39:24;26.00;88.60
47813;DHT22;34221;45.296;9.516;2022-08-03T00:39:39;26.00;88.60
47813;DHT22;34221;45.296;9.516;2022-08-03T00:39:56;26.00;88.70
47813;DHT22;34221;45.296;9.516;2022-08-03T00:40:13;25.90;88.60
47813;DHT22;34221;45.296;9.516;2022-08-03T00:40:29;26.00;89.00
47813;DHT22;34221;45.296;9.516;2022-08-03T00:40:44;26.00;89.20
47813;DHT22;34221;45.296;9.516;2022-08-03T00:40:59;26.00;89.00
47813;DHT22;34221;45.296;9.516;2022-08-03T00:41:14;26.00;89.00
47813;DHT22;34221;45.296;9.516;2022-08-03T00:41:29;26.00;88.90
47813;DHT22;34221;45.296;9.516;2022-08-03T00:41:44;26.00;89.60
47813;DHT22;34221;45.296;9.516;2022-08-03T00:42:05;26.00;89.30
47813;DHT22;34221;45.296;9.516;2022-08-03T00:42:20;26.00;89.30
47813;DHT22;34221;45.296;9.516;2022-08-03T00:42:55;26.00;89.50
47813;DHT22;34221;45.296;9.516;2022-08-03T00:43:13;26.00;89.20
47813;DHT22;34221;45.296;9.516;2022-08-03T00:43:28;26.00;89.20
47813;DHT22;34221;45.296;9.516;2022-08-03T00:43:43;26.00;89.30
47813;DHT22;34221;45.296;9.516;2022-08-03T00:43:59;26.00;89.50
47813;DHT22;34221;45.296;9.516;2022-08-03T00:44:14;26.00;89.70
47813;DHT22;34221;45.296;9.516;2022-08-03T00:44:29;26.00;89.40
47813;DHT22;34221;45.296;9.516;2022-08-03T00:44:45;26.00;89.50
47813;DHT22;34221;45.296;9.516;2022-08-03T00:45:00;26.00;89.10
47813;DHT22;34221;45.296;9.516;2022-08-03T00:45:20;26.00;89.00
47813;DHT22;34221;45.296;9.516;2022-08-03T00:45:39;26.00;89.10
47813;DHT22;34221;45.296;9.516;2022-08-03T00:45:55;26.00;89.30
47813;DHT22;34221;45.296;9.516;2022-08-03T00:46:10;26.00;89.70
47813;DHT22;34221;45.296;9.516;2022-08-03T00:46:25;25.90;89.60
47813;DHT22;34221;45.296;9.516;2022-08-03T00:46:40;26.00;89.90
47813;DHT22;34221;45.296;9.516;2022-08-03T00:46:55;26.00;89.50
47813;DHT22;34221;45.296;9.516;2022-08-03T00:47:11;26.00;89.40
47813;DHT22;34221;45.296;9.516;2022-08-03T00:47:26;26.00;89.30
47813;DHT22;34221;45.296;9.516;2022-08-03T00:47:41;26.00;89.20
47813;DHT22;34221;45.296;9.516;2022-08-03T00:47:56;26.00;89.40
47813;DHT22;34221;45.296;9.516;2022-08-03T00:48:12;26.00;89.40
47813;DHT22;34221;45.296;9.516;2022-08-03T00:48:27;26.00;89.40
47813;DHT22;34221;45.296;9.516;2022-08-03T00:48:42;26.00;89.50
47813;DHT22;34221;45.296;9.516;2022-08-03T00:48:57;26.00;89.10
47813;DHT22;34221;45.296;9.516;2022-08-03T00:49:12;26.00;89.20
47813;DHT22;34221;45.296;9.516;2022-08-03T00:49:27;25.90;89.10
47813;DHT22;34221;45.296;9.516;2022-08-03T00:49:42;25.90;89.20
47813;DHT22;34221;45.296;9.516;2022-08-03T00:49:57;25.90;89.40
47813;DHT22;34221;45.296;9.516;2022-08-03T00:50:12;25.90;89.60
47813;DHT22;34221;45.296;9.516;2022-08-03T00:50:29;25.90;89.60
47813;DHT22;34221;45.296;9.516;2022-08-03T00:50:46;25.90;90.00
47813;DHT22;34221;45.296;9.516;2022-08-03T00:51:01;25.90;89.70
47813;DHT22;34221;45.296;9.516;2022-08-03T00:51:17;25.90;89.80
47813;DHT22;34221;45.296;9.516;2022-08-03T00:51:33;25.90;89.50
47813;DHT22;34221;45.296;9.516;2022-08-03T00:51:48;25.90;89.60
47813;DHT22;34221;45.296;9.516;2022-08-03T00:52:04;25.80;89.70
47813;DHT22;34221;45.296;9.516;2022-08-03T00:52:19;25.90;89.60
47813;DHT22;34221;45.296;9.516;2022-08-03T00:52:34;25.90;89.90
47813;DHT22;34221;45.296;9.516;2022-08-03T00:52:54;25.90;89.80
47813;DHT22;34221;45.296;9.516;2022-08-03T00:53:11;25.90;89.90
47813;DHT22;34221;45.296;9.516;2022-08-03T00:53:27;25.90;90.00
47813;DHT22;34221;45.296;9.516;2022-08-03T00:53:42;25.90;90.00
47813;DHT22;34221;45.296;9.516;2022-08-03T00:53:57;25.90;90.10
47813;DHT22;34221;45.296;9.516;2022-08-03T00:54:13;25.90;89.80
47813;DHT22;34221;45.296;9.516;2022-08-03T00:54:29;25.90;89.90
47813;DHT22;34221;45.296;9.516;2022-08-03T00:54:44;25.90;90.10
47813;DHT22;34221;45.296;9.516;2022-08-03T00:55:00;25.90;89.80
47813;DHT22;34221;45.296;9.516;2022-08-03T00:55:15;25.90;90.00
47813;DHT22;34221;45.296;9.516;2022-08-03T00:55:31;25.90;90.10
47813;DHT22;34221;45.296;9.516;2022-08-03T00:55:46;26.00;90.00
47813;DHT22;34221;45.296;9.516;2022-08-03T00:56:01;26.00;89.90
47813;DHT22;34221;45.296;9.516;2022-08-03T00:56:17;26.00;89.70
47813;DHT22;34221;45.296;9.516;2022-08-03T00:56:32;26.00;89.50
47813;DHT22;34221;45.296;9.516;2022-08-03T00:56:48;26.00;89.60
47813;DHT22;34221;45.296;9.516;2022-08-03T00:57:03;26.00;90.00
47813;DHT22;34221;45.296;9.516;2022-08-03T00:57:18;26.00;90.00
47813;DHT22;34221;45.296;9.516;2022-08-03T00:57:34;26.00;89.50
47813;DHT22;34221;45.296;9.516;2022-08-03T00:57:49;26.00;89.50
47813;DHT22;34221;45.296;9.516;2022-08-03T00:58:04;26.00;89.20
47813;DHT22;34221;45.296;9.516;2022-08-03T00:58:20;26.00;89.40
47813;DHT22;34221;45.296;9.516;2022-08-03T00:58:35;26.00;89.60
47813;DHT22;34221;45.296;9.516;2022-08-03T00:58:50;25.90;89.60
47813;DHT22;34221;45.296;9.516;2022-08-03T00:59:09;25.90;89.80
47813;DHT22;34221;45.296;9.516;2022-08-03T00:59:24;26.00;89.60
47813;DHT22;34221;45.296;9.516;2022-08-03T00:59:38;26.00;89.70
47813;DHT22;34221;45.296;9.516;2022-08-03T00:59:54;26.00;89.60
47813;DHT22;34221;45.296;9.516;2022-08-03T01:00:10;26.00;89.70
47813;DHT22;34221;45.296;9.516;2022-08-03T01:00:27;25.90;89.30
47813;DHT22;34221;45.296;9.516;2022-08-03T01:00:42;25.90;89.70
47813;DHT22;34221;45.296;9.516;2022-08-03T01:00:57;25.90;89.90
47813;DHT22;34221;45.296;9.516;2022-08-03T01:01:13;25.90;90.00
47813;DHT22;34221;45.296;9.516;2022-08-03T01:01:28;25.90;90.00
47813;DHT22;34221;45.296;9.516;2022-08-03T01:01:43;26.00;90.00
47813;DHT22;34221;45.296;9.516;2022-08-03T01:01:58;25.90;89.90
47813;DHT22;34221;45.296;9.516;2022-08-03T01:02:13;25.90;89.90
47813;DHT22;34221;45.296;9.516;2022-08-03T01:02:28;25.90;89.90
47813;DHT22;34221;45.296;9.516;2022-08-03T01:02:43;25.90;90.00
47813;DHT22;34221;45.296;9.516;2022-08-03T01:02:58;25.90;90.10
47813;DHT22;34221;45.296;9.516;2022-08-03T01:03:13;25.90;90.00
47813;DHT22;34221;45.296;9.516;2022-08-03T01:03:28;25.80;90.00
47813;DHT22;34221;45.296;9.516;2022-08-03T01:03:43;25.90;90.20
47813;DHT22;34221;45.296;9.516;2022-08-03T01:03:58;25.90;90.20
47813;DHT22;34221;45.296;9.516;2022-08-03T01:04:13;25.90;90.10
47813;DHT22;34221;45.296;9.516;2022-08-03T01:04:28;25.90;90.20
47813;DHT22;34221;45.296;9.516;2022-08-03T01:04:43;25.90;90.00
47813;DHT22;34221;45.296;9.516;2022-08-03T01:04:58;25.90;90.00
47813;DHT22;34221;45.296;9.516;2022-08-03T01:05:13;25.90;89.80
47813;DHT22;34221;45.296;9.516;2022-08-03T01:05:28;25.90;90.00
47813;DHT22;34221;45.296;9.516;2022-08-03T01:06:16;25.90;90.00
47813;DHT22;34221;45.296;9.516;2022-08-03T01:06:43;25.90;90.20
47813;DHT22;34221;45.296;9.516;2022-08-03T01:07:11;25.90;90.10
47813;DHT22;34221;45.296;9.516;2022-08-03T01:08:41;25.90;90.10
47813;DHT22;34221;45.296;9.516;2022-08-03T01:09:32;25.90;90.00
47813;DHT22;34221;45.296;9.516;2022-08-03T01:10:36;25.90;90.00
47813;DHT22;34221;45.296;9.516;2022-08-03T01:11:09;25.90;90.00
47813;DHT22;34221;45.296;9.516;2022-08-03T01:11:45;25.90;90.10
47813;DHT22;34221;45.296;9.516;2022-08-03T01:12:12;25.90;90.20
47813;DHT22;34221;45.296;9.516;2022-08-03T01:12:41;25.90;90.10
47813;DHT22;34221;45.296;9.516;2022-08-03T01:13:15;25.90;90.20
47813;DHT22;34221;45.296;9.516;2022-08-03T01:15:04;25.90;90.30
47813;DHT22;34221;45.296;9.516;2022-08-03T01:17:33;25.80;90.30
47813;DHT22;34221;45.296;9.516;2022-08-03T01:18:00;25.80;90.40
47813;DHT22;34221;45.296;9.516;2022-08-03T01:20:00;25.80;90.30
47813;DHT22;34221;45.296;9.516;2022-08-03T01:20:21;25.80;90.40
47813;DHT22;34221;45.296;9.516;2022-08-03T01:20:42;25.80;90.50
47813;DHT22;34221;45.296;9.516;2022-08-03T01:21:00;25.80;90.40
47813;DHT22;34221;45.296;9.516;2022-08-03T01:21:31;25.80;90.60
47813;DHT22;34221;45.296;9.516;2022-08-03T01:24:48;25.70;90.70
47813;DHT22;34221;45.296;9.516;2022-08-03T01:25:49;25.80;90.90
47813;DHT22;34221;45.296;9.516;2022-08-03T01:27:35;25.80;90.90
47813;DHT22;34221;45.296;9.516;2022-08-03T01:28:32;25.70;90.60
47813;DHT22;34221;45.296;9.516;2022-08-03T01:30:09;25.80;91.00
47813;DHT22;34221;45.296;9.516;2022-08-03T01:30:30;25.80;90.70
47813;DHT22;34221;45.296;9.516;2022-08-03T01:30:47;25.80;90.60
47813;DHT22;34221;45.296;9.516;2022-08-03T01:31:06;25.80;90.80
47813;DHT22;34221;45.296;9.516;2022-08-03T01:31:26;25.80;90.70
47813;DHT22;34221;45.296;9.516;2022-08-03T01:32:12;25.80;90.80
47813;DHT22;34221;45.296;9.516;2022-08-03T01:32:41;25.90;90.60
47813;DHT22;34221;45.296;9.516;2022-08-03T01:33:05;25.80;90.50
47813;DHT22;34221;45.296;9.516;2022-08-03T01:33:30;25.80;90.50
47813;DHT22;34221;45.296;9.516;2022-08-03T01:33:56;25.80;90.40
47813;DHT22;34221;45.296;9.516;2022-08-03T01:34:15;25.80;90.40
47813;DHT22;34221;45.296;9.516;2022-08-03T01:34:35;25.80;90.50
47813;DHT22;34221;45.296;9.516;2022-08-03T01:35:01;25.70;90.60
47813;DHT22;34221;45.296;9.516;2022-08-03T01:35:38;25.70;90.60
47813;DHT22;34221;45.296;9.516;2022-08-03T01:36:03;25.70;90.60
47813;DHT22;34221;45.296;9.516;2022-08-03T01:36:23;25.70;90.70
47813;DHT22;34221;45.296;9.516;2022-08-03T01:36:43;25.60;90.60
47813;DHT22;34221;45.296;9.516;2022-08-03T01:37:05;25.60;90.70
47813;DHT22;34221;45.296;9.516;2022-08-03T01:37:25;25.60;90.90
47813;DHT22;34221;45.296;9.516;2022-08-03T01:37:55;25.60;90.80
47813;DHT22;34221;45.296;9.516;2022-08-03T01:38:32;25.60;91.10
47813;DHT22;34221;45.296;9.516;2022-08-03T01:38:54;25.60;91.00
47813;DHT22;34221;45.296;9.516;2022-08-03T01:39:20;25.60;91.00
47813;DHT22;34221;45.296;9.516;2022-08-03T01:39:36;25.60;91.00
47813;DHT22;34221;45.296;9.516;2022-08-03T01:39:56;25.60;91.10
47813;DHT22;34221;45.296;9.516;2022-08-03T01:40:12;25.60;91.00
47813;DHT22;34221;45.296;9.516;2022-08-03T01:40:29;25.70;91.00
47813;DHT22;34221;45.296;9.516;2022-08-03T01:40:46;25.60;91.00
47813;DHT22;34221;45.296;9.516;2022-08-03T01:41:10;25.70;91.00
47813;DHT22;34221;45.296;9.516;2022-08-03T01:41:32;25.70;90.90
47813;DHT22;34221;45.296;9.516;2022-08-03T01:41:51;25.70;90.80
47813;DHT22;34221;45.296;9.516;2022-08-03T01:42:13;25.70;90.90
47813;DHT22;34221;45.296;9.516;2022-08-03T01:42:29;25.70;90.70
47813;DHT22;34221;45.296;9.516;2022-08-03T01:42:45;25.70;90.70
47813;DHT22;34221;45.296;9.516;2022-08-03T01:43:02;25.70;90.90
47813;DHT22;34221;45.296;9.516;2022-08-03T01:43:19;25.70;90.70
47813;DHT22;34221;45.296;9.516;2022-08-03T01:43:36;25.70;90.70
47813;DHT22;34221;45.296;9.516;2022-08-03T01:43:53;25.70;90.70
47813;DHT22;34221;45.296;9.516;2022-08-03T01:44:11;25.70;90.80
47813;DHT22;34221;45.296;9.516;2022-08-03T01:44:29;25.70;90.80
47813;DHT22;34221;45.296;9.516;2022-08-03T01:44:50;25.60;90.80
47813;DHT22;34221;45.296;9.516;2022-08-03T01:45:08;25.60;90.80
47813;DHT22;34221;45.296;9.516;2022-08-03T01:45:25;25.60;90.90
47813;DHT22;34221;45.296;9.516;2022-08-03T01:45:42;25.60;90.90
47813;DHT22;34221;45.296;9.516;2022-08-03T01:45:58;25.60;90.90
47813;DHT22;34221;45.296;9.516;2022-08-03T01:46:14;25.60;91.00
47813;DHT22;34221;45.296;9.516;2022-08-03T01:46:31;25.60;90.90
47813;DHT22;34221;45.296;9.516;2022-08-03T01:46:47;25.60;90.90
47813;DHT22;34221;45.296;9.516;2022-08-03T01:47:05;25.60;90.90
47813;DHT22;34221;45.296;9.516;2022-08-03T01:47:21;25.70;91.00
47813;DHT22;34221;45.296;9.516;2022-08-03T01:47:39;25.70;90.90
47813;DHT22;34221;45.296;9.516;2022-08-03T01:47:55;25.70;91.00
47813;DHT22;34221;45.296;9.516;2022-08-03T01:48:11;25.70;91.00
47813;DHT22;34221;45.296;9.516;2022-08-03T01:48:30;25.70;90.90
47813;DHT22;34221;45.296;9.516;2022-08-03T01:48:47;25.60;90.80
47813;DHT22;34221;45.296;9.516;2022-08-03T01:49:06;25.60;90.90
47813;DHT22;34221;45.296;9.516;2022-08-03T01:49:26;25.60;90.80
47813;DHT22;34221;45.296;9.516;2022-08-03T01:49:43;25.60;90.90
47813;DHT22;34221;45.296;9.516;2022-08-03T01:49:59;25.60;90.90
47813;DHT22;34221;45.296;9.516;2022-08-03T01:50:20;25.60;91.10
47813;DHT22;34221;45.296;9.516;2022-08-03T01:50:37;25.60;91.00
47813;DHT22;34221;45.296;9.516;2022-08-03T01:50:54;25.60;91.00
47813;DHT22;34221;45.296;9.516;2022-08-03T01:51:11;25.50;91.00
47813;DHT22;34221;45.296;9.516;2022-08-03T01:51:28;25.50;91.10
47813;DHT22;34221;45.296;9.516;2022-08-03T01:51:44;25.60;91.10
47813;DHT22;34221;45.296;9.516;2022-08-03T01:52:02;25.50;91.20
47813;DHT22;34221;45.296;9.516;2022-08-03T01:52:18;25.50;91.00
47813;DHT22;34221;45.296;9.516;2022-08-03T01:52:36;25.50;91.10
47813;DHT22;34221;45.296;9.516;2022-08-03T01:52:55;25.50;91.50
47813;DHT22;34221;45.296;9.516;2022-08-03T01:53:14;25.50;91.20
47813;DHT22;34221;45.296;9.516;2022-08-03T01:53:31;25.50;91.10
47813;DHT22;34221;45.296;9.516;2022-08-03T01:53:48;25.50;91.00
47813;DHT22;34221;45.296;9.516;2022-08-03T01:54:06;25.50;91.00
47813;DHT22;34221;45.296;9.516;2022-08-03T01:54:23;25.50;91.20
47813;DHT22;34221;45.296;9.516;2022-08-03T01:54:44;25.50;91.20
47813;DHT22;34221;45.296;9.516;2022-08-03T01:55:02;25.50;91.20
47813;DHT22;34221;45.296;9.516;2022-08-03T01:55:19;25.50;91.30
47813;DHT22;34221;45.296;9.516;2022-08-03T01:55:37;25.50;91.30
47813;DHT22;34221;45.296;9.516;2022-08-03T01:55:54;25.50;91.30
47813;DHT22;34221;45.296;9.516;2022-08-03T01:56:10;25.60;91.10
47813;DHT22;34221;45.296;9.516;2022-08-03T01:56:27;25.60;91.40
47813;DHT22;34221;45.296;9.516;2022-08-03T01:56:44;25.60;91.40
47813;DHT22;34221;45.296;9.516;2022-08-03T01:57:01;25.60;91.30
47813;DHT22;34221;45.296;9.516;2022-08-03T01:57:18;25.60;91.40
47813;DHT22;34221;45.296;9.516;2022-08-03T01:57:34;25.60;91.20
47813;DHT22;34221;45.296;9.516;2022-08-03T01:57:51;25.60;91.10
47813;DHT22;34221;45.296;9.516;2022-08-03T01:58:08;25.60;91.10
47813;DHT22;34221;45.296;9.516;2022-08-03T01:58:24;25.60;91.20
47813;DHT22;34221;45.296;9.516;2022-08-03T01:58:41;25.50;91.10
47813;DHT22;34221;45.296;9.516;2022-08-03T01:58:57;25.60;91.10
47813;DHT22;34221;45.296;9.516;2022-08-03T01:59:15;25.60;91.00
47813;DHT22;34221;45.296;9.516;2022-08-03T01:59:34;25.60;91.20
47813;DHT22;34221;45.296;9.516;2022-08-03T01:59:51;25.60;91.10
47813;DHT22;34221;45.296;9.516;2022-08-03T02:00:07;25.60;91.10
47813;DHT22;34221;45.296;9.516;2022-08-03T02:00:26;25.60;91.10
47813;DHT22;34221;45.296;9.516;2022-08-03T02:00:41;25.60;91.10
47813;DHT22;34221;45.296;9.516;2022-08-03T02:00:58;25.60;91.20
47813;DHT22;34221;45.296;9.516;2022-08-03T02:01:15;25.60;91.10
47813;DHT22;34221;45.296;9.516;2022-08-03T02:01:31;25.60;91.10
47813;DHT22;34221;45.296;9.516;2022-08-03T02:01:47;25.60;91.00
47813;DHT22;34221;45.296;9.516;2022-08-03T02:02:06;25.60;91.00